createdAt,value
2018-04-13T00:02:19.814Z,6.47
2018-04-13T00:04:46.713Z,6.83
2018-04-13T00:07:13.101Z,7.93
2018-04-13T00:09:39.345Z,5.70
2018-04-13T00:12:05.471Z,4.87
2018-04-13T00:14:31.533Z,8.83
2018-04-13T00:16:57.652Z,5.13
2018-04-13T00:19:23.773Z,15.63
2018-04-13T00:21:50.582Z,15.13
2018-04-13T00:24:16.734Z,9.82
2018-04-13T00:26:43.003Z,5.50
2018-04-13T00:29:09.845Z,8.17
2018-04-13T00:31:36.738Z,5.78
2018-04-13T00:34:02.857Z,6.05
2018-04-13T00:36:29.670Z,7.73
2018-04-13T00:38:55.765Z,4.90
2018-04-13T00:41:21.835Z,6.50
2018-04-13T00:43:47.946Z,8.02
2018-04-13T00:46:14.054Z,15.02
2018-04-13T00:48:40.913Z,52.08
2018-04-13T00:51:07.721Z,41.80
2018-04-13T00:53:33.818Z,47.90
2018-04-13T00:55:59.921Z,43.27
2018-04-13T00:58:26.004Z,47.25
2018-04-13T01:00:52.130Z,30.25
2018-04-13T01:03:18.225Z,23.55
2018-04-13T01:05:44.486Z,16.07
2018-04-13T01:08:11.306Z,14.43
2018-04-13T01:10:37.413Z,23.67
2018-04-13T01:13:03.525Z,17.27
2018-04-13T01:15:30.394Z,11.83
2018-04-13T01:17:56.546Z,12.30
2018-04-13T01:20:22.661Z,11.97
2018-04-13T01:22:49.620Z,7.27
2018-04-13T01:25:16.514Z,10.50
2018-04-13T01:27:42.602Z,9.93
2018-04-13T01:30:08.867Z,8.07
2018-04-13T01:32:35.030Z,21.60
2018-04-13T01:35:01.114Z,8.97
2018-04-13T01:37:27.362Z,11.60
2018-04-13T01:39:53.526Z,22.30
2018-04-13T01:42:19.611Z,16.10
2018-04-13T01:44:45.706Z,11.40
2018-04-13T01:47:11.832Z,8.40
2018-04-13T01:49:38.683Z,8.33
2018-04-13T01:52:05.542Z,9.10
2018-04-13T01:54:32.379Z,6.23
2018-04-13T01:56:58.487Z,8.33
2018-04-13T01:59:24.631Z,6.90
2018-04-13T02:01:50.767Z,9.13
2018-04-13T02:04:16.863Z,5.83
2018-04-13T02:06:42.993Z,8.90
2018-04-13T02:09:09.151Z,8.88
2018-04-13T02:11:35.238Z,11.40
2018-04-13T02:14:01.374Z,13.50
2018-04-13T02:16:27.459Z,7.53
2018-04-13T02:18:54.286Z,9.20
2018-04-13T02:21:21.238Z,10.95
2018-04-13T02:23:48.082Z,10.02
2018-04-13T02:26:14.198Z,10.52
2018-04-13T02:28:40.310Z,11.17
2018-04-13T02:31:06.394Z,10.63
2018-04-13T02:33:32.506Z,13.13
2018-04-13T02:35:58.628Z,7.47
2018-04-13T02:38:24.721Z,6.50
2018-04-13T02:40:50.858Z,12.50
2018-04-13T02:43:17.709Z,10.80
2018-04-13T02:45:43.842Z,8.77
2018-04-13T02:48:09.957Z,6.73
2018-04-13T02:50:36.083Z,8.30
2018-04-13T02:53:02.180Z,6.73
2018-04-13T02:55:29.059Z,7.00
2018-04-13T02:57:55.166Z,6.30
2018-04-13T03:00:21.263Z,4.33
2018-04-13T03:02:47.378Z,5.00
2018-04-13T03:05:13.491Z,6.07
2018-04-13T03:07:40.356Z,10.13
2018-04-13T03:10:07.188Z,6.93
2018-04-13T03:12:33.305Z,6.20
2018-04-13T03:14:59.398Z,10.20
2018-04-13T03:17:25.499Z,3.50
2018-04-13T03:19:51.641Z,5.55
2018-04-13T03:22:17.740Z,10.13
2018-04-13T03:24:43.851Z,10.40
2018-04-13T03:27:09.958Z,8.90
2018-04-13T03:29:36.043Z,3.70
2018-04-13T03:32:02.163Z,5.90
2018-04-13T03:34:28.261Z,7.00
2018-04-13T03:36:54.395Z,4.00
2018-04-13T03:39:20.531Z,6.30
2018-04-13T03:41:46.639Z,4.43
2018-04-13T03:44:12.754Z,5.40
2018-04-13T03:46:38.837Z,5.33
2018-04-13T03:49:04.954Z,6.13
2018-04-13T03:51:31.039Z,4.70
2018-04-13T03:53:57.159Z,4.85
2018-04-13T03:56:23.250Z,4.13
2018-04-13T03:58:49.352Z,4.23
2018-04-13T04:01:15.466Z,8.80
2018-04-13T04:03:41.558Z,5.30
2018-04-13T04:06:07.673Z,5.70
2018-04-13T04:08:34.537Z,7.10
2018-04-13T04:11:01.414Z,4.30
2018-04-13T04:13:27.477Z,8.00
2018-04-13T04:15:53.582Z,4.30
2018-04-13T04:18:19.696Z,3.63
2018-04-13T04:20:58.902Z,8.87
2018-04-13T04:23:37.320Z,7.93
2018-04-13T04:26:21.082Z,7.33
2018-04-13T04:28:47.172Z,8.50
2018-04-13T04:31:14.011Z,8.73
2018-04-13T04:33:40.199Z,7.13
2018-04-13T04:36:06.310Z,11.27
2018-04-13T04:38:33.172Z,15.77
2018-04-13T04:40:59.290Z,10.43
2018-04-13T04:43:25.383Z,11.30
2018-04-13T04:45:51.515Z,7.97
2018-04-13T04:48:17.593Z,8.27
2018-04-13T04:50:43.706Z,13.10
2018-04-13T04:53:09.793Z,10.63
2018-04-13T04:55:36.714Z,9.70
2018-04-13T04:58:02.827Z,12.50
2018-04-13T05:00:28.914Z,10.60
2018-04-13T05:02:55.766Z,8.70
2018-04-13T05:05:21.955Z,7.73
2018-04-13T05:07:48.103Z,10.43
2018-04-13T05:10:14.175Z,8.07
2018-04-13T05:12:40.359Z,8.50
2018-04-13T05:15:06.471Z,10.23
2018-04-13T05:17:33.294Z,21.30
2018-04-13T05:19:59.419Z,9.07
2018-04-13T05:22:25.493Z,7.90
2018-04-13T05:24:51.604Z,11.03
2018-04-13T05:27:17.726Z,12.73
2018-04-13T05:29:43.869Z,10.20
2018-04-13T05:32:09.963Z,15.23
2018-04-13T05:34:36.786Z,8.37
2018-04-13T05:37:02.891Z,10.17
2018-04-13T05:39:29.007Z,11.00
2018-04-13T05:41:55.098Z,9.00
2018-04-13T05:44:21.220Z,9.70
2018-04-13T05:46:47.320Z,8.67
2018-04-13T05:49:13.445Z,11.47
2018-04-13T05:51:40.270Z,10.87
2018-04-13T05:54:06.403Z,6.97
2018-04-13T05:56:32.498Z,5.10
2018-04-13T05:58:59.375Z,7.33
2018-04-13T06:01:25.458Z,6.03
2018-04-13T06:03:52.353Z,7.93
2018-04-13T06:06:18.443Z,9.57
2018-04-13T06:08:44.526Z,6.83
2018-04-13T06:11:10.655Z,9.63
2018-04-13T06:13:36.739Z,5.30
2018-04-13T06:16:02.841Z,4.63
2018-04-13T06:18:28.962Z,4.23
2018-04-13T06:20:55.078Z,6.90
2018-04-13T06:23:21.199Z,8.90
2018-04-13T06:25:47.278Z,5.87
2018-04-13T06:28:13.398Z,4.87
2018-04-13T06:30:40.227Z,10.27
2018-04-13T06:33:06.342Z,6.70
2018-04-13T06:35:32.435Z,4.83
2018-04-13T06:37:59.273Z,7.33
2018-04-13T06:40:25.381Z,9.17
2018-04-13T06:42:51.465Z,7.83
2018-04-13T06:45:18.318Z,6.07
2018-04-13T06:47:45.151Z,5.30
2018-04-13T06:50:11.307Z,11.50
2018-04-13T06:52:38.131Z,10.30
2018-04-13T06:55:04.227Z,6.67
2018-04-13T06:57:30.374Z,11.77
2018-04-13T06:59:56.479Z,7.20
2018-04-13T07:02:23.346Z,9.13
2018-04-13T07:04:49.437Z,8.30
2018-04-13T07:07:15.534Z,7.60
2018-04-13T07:09:41.627Z,13.60
2018-04-13T07:12:07.756Z,7.13
2018-04-13T07:14:33.878Z,9.50
2018-04-13T07:16:59.974Z,8.13
2018-04-13T07:19:26.799Z,7.67
2018-04-13T07:21:52.906Z,7.93
2018-04-13T07:24:18.991Z,6.50
2018-04-13T07:26:45.893Z,5.33
2018-04-13T07:29:11.947Z,8.37
2018-04-13T07:31:38.066Z,7.30
2018-04-13T07:34:04.206Z,11.00
2018-04-13T07:36:30.302Z,7.23
2018-04-13T07:38:57.132Z,7.17
2018-04-13T07:41:23.234Z,7.93
2018-04-13T07:43:49.324Z,11.30
2018-04-13T07:46:15.444Z,7.20
2018-04-13T07:48:41.565Z,7.30
2018-04-13T07:51:07.651Z,8.87
2018-04-13T07:53:34.526Z,10.23
2018-04-13T07:56:00.653Z,7.90
2018-04-13T07:58:27.488Z,6.73
2018-04-13T08:00:53.945Z,8.23
2018-04-13T08:03:19.702Z,8.90
2018-04-13T08:05:45.862Z,6.13
2018-04-13T08:08:11.960Z,9.90
2018-04-13T08:10:38.826Z,7.20
2018-04-13T08:13:05.670Z,7.30
2018-04-13T08:15:32.541Z,9.30
2018-04-13T08:17:58.643Z,12.70
2018-04-13T08:20:24.781Z,9.87
2018-04-13T08:22:50.887Z,8.43
2018-04-13T08:25:16.991Z,7.93
2018-04-13T08:27:43.126Z,11.27
2018-04-13T08:30:09.218Z,11.87
2018-04-13T08:32:35.354Z,7.93
2018-04-13T08:35:01.466Z,7.33
2018-04-13T08:37:27.590Z,8.63
2018-04-13T08:39:53.699Z,9.00
2018-04-13T08:42:20.597Z,8.33
2018-04-13T08:44:46.727Z,8.90
2018-04-13T08:47:12.847Z,12.77
2018-04-13T08:49:38.963Z,7.53
2018-04-13T08:52:05.835Z,10.33
2018-04-13T08:54:32.698Z,15.77
2018-04-13T08:56:59.558Z,8.03
2018-04-13T08:59:25.668Z,9.10
2018-04-13T09:01:51.807Z,9.13
2018-04-13T09:04:17.943Z,8.40
2018-04-13T09:06:44.836Z,11.83
2018-04-13T09:09:10.977Z,8.50
2018-04-13T09:11:37.094Z,15.10
2018-04-13T09:14:03.958Z,7.63
2018-04-13T09:16:30.819Z,17.50
2018-04-13T09:18:57.643Z,11.47
2018-04-13T09:21:23.779Z,11.20
2018-04-13T09:23:49.864Z,12.30
2018-04-13T09:26:15.949Z,9.97
2018-04-13T09:28:42.076Z,9.90
2018-04-13T09:31:08.195Z,9.60
2018-04-13T09:33:34.327Z,8.20
2018-04-13T09:36:00.412Z,10.30
2018-04-13T09:38:26.501Z,11.37
2018-04-13T09:40:52.602Z,10.40
2018-04-13T09:43:19.499Z,10.07
2018-04-13T09:45:45.603Z,9.50
2018-04-13T09:48:12.438Z,8.10
2018-04-13T09:50:38.607Z,12.20
2018-04-13T09:53:04.727Z,10.60
2018-04-13T09:55:31.589Z,9.10
2018-04-13T09:57:58.432Z,9.87
2018-04-13T10:00:29.512Z,10.40
2018-04-13T10:03:01.630Z,9.97
2018-04-13T10:05:27.729Z,14.83
2018-04-13T10:07:53.856Z,9.60
2018-04-13T10:10:19.982Z,9.37
2018-04-13T10:12:46.076Z,16.10
2018-04-13T10:15:12.189Z,8.63
2018-04-13T10:17:38.280Z,9.50
2018-04-13T10:20:04.399Z,8.63
2018-04-13T10:22:30.481Z,7.63
2018-04-13T10:24:57.334Z,9.63
2018-04-13T10:27:24.158Z,10.07
2018-04-13T10:29:50.287Z,11.00
2018-04-13T10:32:16.377Z,6.50
2018-04-13T10:34:43.249Z,8.90
2018-04-13T10:37:10.092Z,8.00
2018-04-13T10:39:36.175Z,4.73
2018-04-13T10:42:02.297Z,5.50
2018-04-13T10:44:28.378Z,5.13
2018-04-13T10:46:54.492Z,7.00
2018-04-13T10:49:20.622Z,3.90
2018-04-13T10:51:46.745Z,5.30
2018-04-13T10:54:12.845Z,5.17
2018-04-13T10:56:39.799Z,3.30
2018-04-13T10:59:06.652Z,8.93
2018-04-13T11:01:33.534Z,3.67
2018-04-13T11:03:59.747Z,2.43
2018-04-13T11:06:25.854Z,4.00
2018-04-13T11:08:51.986Z,2.60
2018-04-13T11:11:18.579Z,2.53
2018-04-13T11:13:44.811Z,2.60
2018-04-13T11:16:10.923Z,1.67
2018-04-13T11:18:37.278Z,1.50
2018-04-13T11:21:03.647Z,1.60
2018-04-13T11:23:30.575Z,2.50
2018-04-13T11:25:56.717Z,2.20
2018-04-13T11:28:22.820Z,1.93
2018-04-13T11:30:49.179Z,2.70
2018-04-13T11:33:15.326Z,2.00
2018-04-13T11:35:41.515Z,2.17
2018-04-13T11:38:08.342Z,3.53
2018-04-13T11:40:34.590Z,2.30
2018-04-13T11:43:00.686Z,3.93
2018-04-13T11:45:26.808Z,3.10
2018-04-13T11:47:52.990Z,3.90
2018-04-13T11:50:19.138Z,2.90
2018-04-13T11:52:45.262Z,2.83
2018-04-13T11:55:11.375Z,2.80
2018-04-13T11:57:37.582Z,2.33
2018-04-13T12:00:04.483Z,3.23
2018-04-13T12:02:30.709Z,4.90
2018-04-13T12:04:56.799Z,2.33
2018-04-13T12:07:23.025Z,2.73
2018-04-13T12:09:49.262Z,3.33
2018-04-13T12:12:15.431Z,3.43
2018-04-13T12:14:42.298Z,3.95
2018-04-13T12:17:08.422Z,2.97
2018-04-13T12:19:34.650Z,8.00
2018-04-13T12:22:00.842Z,2.72
2018-04-13T12:24:27.682Z,2.70
2018-04-13T12:26:53.784Z,3.40
2018-04-13T12:29:19.922Z,4.35
2018-04-13T12:31:46.174Z,3.22
2018-04-13T12:34:13.089Z,1.58
2018-04-13T12:36:39.214Z,3.45
2018-04-13T12:39:06.094Z,1.27
2018-04-13T12:41:32.197Z,1.77
2018-04-13T12:43:58.343Z,2.47
2018-04-13T12:46:24.497Z,5.05
2018-04-13T12:48:50.626Z,4.67
2018-04-13T12:51:17.502Z,3.53
2018-04-13T12:53:43.626Z,2.75
2018-04-13T12:56:09.869Z,2.30
2018-04-13T12:58:36.034Z,2.30
2018-04-13T13:01:02.367Z,2.60
2018-04-13T13:03:28.486Z,5.40
2018-04-13T13:05:54.614Z,2.40
2018-04-13T13:08:20.747Z,2.22
2018-04-13T13:10:47.221Z,5.40
2018-04-13T13:13:13.403Z,2.60
2018-04-13T13:15:39.670Z,3.33
2018-04-13T13:18:08.020Z,2.95
2018-04-13T13:20:34.215Z,3.40
2018-04-13T13:23:00.310Z,4.40
2018-04-13T13:25:27.454Z,6.20
2018-04-13T13:27:53.562Z,3.55
2018-04-13T13:30:19.668Z,4.75
2018-04-13T13:32:46.510Z,4.20
2018-04-13T13:35:13.386Z,3.93
2018-04-13T13:37:39.859Z,6.18
2018-04-13T13:40:06.030Z,5.55
2018-04-13T13:42:32.125Z,3.70
2018-04-13T13:44:58.255Z,4.90
2018-04-13T13:47:24.371Z,5.80
2018-04-13T13:49:51.230Z,4.47
2018-04-13T13:52:18.214Z,4.37
2018-04-13T13:54:44.377Z,6.22
2018-04-13T13:57:10.483Z,4.87
2018-04-13T13:59:37.683Z,7.53
2018-04-13T14:02:03.826Z,7.60
2018-04-13T14:04:29.931Z,6.12
2018-04-13T14:06:56.087Z,4.25
2018-04-13T14:09:22.187Z,4.90
2018-04-13T14:11:49.041Z,5.68
2018-04-13T14:14:15.248Z,5.25
2018-04-13T14:16:41.419Z,3.58
2018-04-13T14:19:08.295Z,6.50
2018-04-13T14:21:34.433Z,4.75
2018-04-13T14:24:00.551Z,6.20
2018-04-13T14:26:27.410Z,5.00
2018-04-13T14:28:54.297Z,5.68
2018-04-13T14:31:20.431Z,5.87
2018-04-13T14:33:46.620Z,5.82
2018-04-13T14:36:13.810Z,5.18
2018-04-13T14:38:42.337Z,4.78
2018-04-13T14:41:08.480Z,5.03
2018-04-13T14:43:34.647Z,5.68
2018-04-13T14:46:01.291Z,5.10
2018-04-13T14:48:27.398Z,4.55
2018-04-13T14:50:53.537Z,8.90
2018-04-13T14:53:19.624Z,8.13
2018-04-13T14:55:46.228Z,7.75
2018-04-13T14:58:12.477Z,6.15
2018-04-13T15:00:38.583Z,6.20
2018-04-13T15:03:06.782Z,5.97
2018-04-13T15:05:33.618Z,9.23
2018-04-13T15:07:59.854Z,6.45
2018-04-13T15:10:25.956Z,7.03
2018-04-13T15:12:52.063Z,7.22
2018-04-13T15:15:19.474Z,5.78
2018-04-13T15:17:46.019Z,5.72
2018-04-13T15:20:12.130Z,11.07
2018-04-13T15:22:39.495Z,6.57
2018-04-13T15:25:05.680Z,5.35
2018-04-13T15:27:31.863Z,5.60
2018-04-13T15:29:57.978Z,8.10
2018-04-13T15:32:24.083Z,4.47
2018-04-13T15:34:50.230Z,3.12
2018-04-13T15:37:16.345Z,4.75
2018-04-13T15:39:42.459Z,5.30
2018-04-13T15:42:09.025Z,4.25
2018-04-13T15:44:35.191Z,6.70
2018-04-13T15:47:01.363Z,4.03
2018-04-13T15:49:27.491Z,5.32
2018-04-13T15:51:53.598Z,5.68
2018-04-13T15:54:19.722Z,9.65
2018-04-13T15:56:46.142Z,4.55
2018-04-13T15:59:13.036Z,6.12
2018-04-13T16:01:39.185Z,4.35
2018-04-13T16:04:05.279Z,4.72
2018-04-13T16:06:31.395Z,6.75
2018-04-13T16:08:57.591Z,4.80
2018-04-13T16:11:23.707Z,4.03
2018-04-13T16:13:49.997Z,5.90
2018-04-13T16:16:16.123Z,4.05
2018-04-13T16:18:43.310Z,4.53
2018-04-13T16:21:09.435Z,4.78
2018-04-13T16:23:36.027Z,6.05
2018-04-13T16:26:02.902Z,8.15
2018-04-13T16:28:29.295Z,4.35
2018-04-13T16:30:55.386Z,4.97
2018-04-13T16:33:21.521Z,4.50
2018-04-13T16:35:48.889Z,3.83
2018-04-13T16:38:15.043Z,3.70
2018-04-13T16:40:41.127Z,3.92
2018-04-13T16:43:08.412Z,2.62
2018-04-13T16:45:34.540Z,3.97
2018-04-13T16:48:01.729Z,6.28
2018-04-13T16:50:27.842Z,3.35
2018-04-13T16:52:54.730Z,3.53
2018-04-13T16:55:20.878Z,2.53
2018-04-13T16:57:47.035Z,7.12
2018-04-13T17:00:13.117Z,2.37
2018-04-13T17:02:39.202Z,1.90
2018-04-13T17:05:05.306Z,2.30
2018-04-13T17:07:32.156Z,2.80
2018-04-13T17:09:58.273Z,5.32
2018-04-13T17:12:24.358Z,4.28
2018-04-13T17:14:50.454Z,2.83
2018-04-13T17:17:17.802Z,2.83
2018-04-13T17:19:44.204Z,2.80
2018-04-13T17:22:10.323Z,2.58
2018-04-13T17:24:37.162Z,2.12
2018-04-13T17:27:03.990Z,1.77
2018-04-13T17:29:31.342Z,1.95
2018-04-13T17:31:57.475Z,1.73
2018-04-13T17:34:23.599Z,2.00
2018-04-13T17:36:49.771Z,1.85
2018-04-13T17:39:15.900Z,2.10
2018-04-13T17:41:41.999Z,2.40
2018-04-13T17:44:09.434Z,1.70
2018-04-13T17:46:35.535Z,2.03
2018-04-13T17:49:01.618Z,2.00
2018-04-13T17:51:27.733Z,2.53
2018-04-13T17:53:53.822Z,3.87
2018-04-13T17:56:20.677Z,1.77
2018-04-13T17:58:48.306Z,1.90
2018-04-13T18:01:14.587Z,1.48
2018-04-13T18:03:41.487Z,2.00
2018-04-13T18:06:07.604Z,2.70
2018-04-13T18:08:35.024Z,2.40
2018-04-13T18:11:01.232Z,1.87
2018-04-13T18:13:27.322Z,1.40
2018-04-13T18:15:53.402Z,1.80
2018-04-13T18:18:19.548Z,1.70
2018-04-13T18:20:46.198Z,2.23
2018-04-13T18:23:12.723Z,1.93
2018-04-13T18:25:38.882Z,2.50
2018-04-13T18:28:05.016Z,1.80
2018-04-13T18:30:31.114Z,3.00
2018-04-13T18:32:57.235Z,2.55
2018-04-13T18:35:23.330Z,1.93
2018-04-13T18:37:49.471Z,2.47
2018-04-13T18:40:15.585Z,2.10
2018-04-13T18:42:42.435Z,2.22
2018-04-13T18:45:09.270Z,1.85
2018-04-13T18:47:35.402Z,1.90
2018-04-13T18:50:01.577Z,3.33
2018-04-13T18:52:28.426Z,2.40
2018-04-13T18:54:55.272Z,1.97
2018-04-13T18:57:22.154Z,3.80
2018-04-13T18:59:48.384Z,4.30
2018-04-13T19:02:15.240Z,2.83
2018-04-13T19:04:41.431Z,11.27
2018-04-13T19:07:07.552Z,2.40
2018-04-13T19:09:34.034Z,2.00
2018-04-13T19:12:00.192Z,2.57
2018-04-13T19:14:27.051Z,2.65
2018-04-13T19:16:53.965Z,2.90
2018-04-13T19:19:20.095Z,2.80
2018-04-13T19:21:48.792Z,4.60
2018-04-13T19:24:16.035Z,5.37
2018-04-13T19:26:42.163Z,5.10
2018-04-13T19:29:08.386Z,4.35
2018-04-13T19:31:34.514Z,4.10
2018-04-13T19:34:00.731Z,4.70
2018-04-13T19:36:28.062Z,5.37
2018-04-13T19:38:54.169Z,4.62
2018-04-13T19:41:20.286Z,4.13
2018-04-13T19:43:47.976Z,5.23
2018-04-13T19:46:14.143Z,4.93
2018-04-13T19:48:41.023Z,4.37
2018-04-13T19:51:07.194Z,5.80
2018-04-13T19:53:33.463Z,6.87
2018-04-13T19:56:00.424Z,8.07
2018-04-13T19:58:28.621Z,5.72
2018-04-13T20:00:55.483Z,7.60
2018-04-13T20:03:22.329Z,6.43
2018-04-13T20:05:50.167Z,7.45
2018-04-13T20:08:16.743Z,7.22
2018-04-13T20:10:43.675Z,10.60
2018-04-13T20:13:11.940Z,9.50
2018-04-13T20:15:38.111Z,9.07
2018-04-13T20:18:04.272Z,9.40
2018-04-13T20:20:31.156Z,10.57
2018-04-13T20:22:57.284Z,10.07
2018-04-13T20:25:26.271Z,10.18
2018-04-13T20:27:53.142Z,14.10
2018-04-13T20:30:19.990Z,12.35
2018-04-13T20:32:47.655Z,9.67
2018-04-13T20:35:14.559Z,10.30
2018-04-13T20:37:40.719Z,10.10
2018-04-13T20:40:06.871Z,9.87
2018-04-13T20:42:32.989Z,12.83
2018-04-13T20:44:59.067Z,11.13
2018-04-13T20:47:25.298Z,8.93
2018-04-13T20:49:51.386Z,10.23
2018-04-13T20:52:17.958Z,11.80
2018-04-13T20:54:44.074Z,10.40
2018-04-13T20:57:10.195Z,12.57
2018-04-13T20:59:36.930Z,11.60
2018-04-13T21:02:04.920Z,11.70
2018-04-13T21:04:31.810Z,10.73
2018-04-13T21:06:57.975Z,14.73
2018-04-13T21:09:24.147Z,11.45
2018-04-13T21:11:50.986Z,10.48
2018-04-13T21:14:17.547Z,10.82
2018-04-13T21:16:43.706Z,13.57
2018-04-13T21:19:09.842Z,13.02
2018-04-13T21:21:36.715Z,10.93
2018-04-13T21:24:02.911Z,9.90
2018-04-13T21:26:29.095Z,14.52
2018-04-13T21:28:55.234Z,11.77
2018-04-13T21:31:21.376Z,11.35
2018-04-13T21:33:47.917Z,12.13
2018-04-13T21:36:14.052Z,10.98
2018-04-13T21:38:41.270Z,12.13
2018-04-13T21:41:07.947Z,14.73
2018-04-13T21:43:34.843Z,13.02
2018-04-13T21:46:00.982Z,11.65
2018-04-13T21:48:27.062Z,18.10
2018-04-13T21:50:53.165Z,25.10
2018-04-13T21:53:19.738Z,24.80
2018-04-13T21:55:46.351Z,15.33
2018-04-13T21:58:12.513Z,15.02
2018-04-13T22:00:39.756Z,12.70
2018-04-13T22:03:05.944Z,14.07
2018-04-13T22:05:32.103Z,15.35
2018-04-13T22:07:59.018Z,13.05
2018-04-13T22:10:25.155Z,14.30
2018-04-13T22:13:03.872Z,17.02
2018-04-13T22:15:30.003Z,15.33
2018-04-13T22:17:58.361Z,11.70
2018-04-13T22:20:25.250Z,14.35
2018-04-13T22:22:51.435Z,11.45
2018-04-13T22:25:17.807Z,14.83
2018-04-13T22:27:45.838Z,16.50
2018-04-13T22:30:12.018Z,15.13
2018-04-13T22:32:38.170Z,31.85
2018-04-13T22:35:04.352Z,18.50
2018-04-13T22:37:30.707Z,13.80
2018-04-13T22:39:57.023Z,25.85
2018-04-13T22:42:23.302Z,48.97
2018-04-13T22:44:50.312Z,47.40
2018-04-13T22:47:18.098Z,35.13
2018-04-13T22:49:44.279Z,26.67
2018-04-13T22:52:11.537Z,20.37
2018-04-13T22:54:37.720Z,23.77
2018-04-13T22:57:04.704Z,25.12
2018-04-13T22:59:30.980Z,18.33
2018-04-13T23:01:57.971Z,22.95
2018-04-13T23:04:24.863Z,20.37
2018-04-13T23:06:51.011Z,25.30
2018-04-13T23:09:17.684Z,21.52
2018-04-13T23:11:43.952Z,23.35
2018-04-13T23:14:10.107Z,22.73
2018-04-13T23:16:37.140Z,20.42
2018-04-13T23:19:03.437Z,24.80
2018-04-13T23:21:29.604Z,22.10
2018-04-13T23:23:55.807Z,22.08
2018-04-13T23:26:22.742Z,25.85
2018-04-13T23:28:49.082Z,20.73
2018-04-13T23:31:15.335Z,20.27
2018-04-13T23:33:42.220Z,20.20
2018-04-13T23:36:08.346Z,22.90
2018-04-13T23:38:35.221Z,20.55
2018-04-13T23:41:01.502Z,25.58
2018-04-13T23:43:27.667Z,18.87
2018-04-13T23:45:54.629Z,24.52
2018-04-13T23:48:21.671Z,25.60
2018-04-13T23:50:47.911Z,18.50
2018-04-13T23:53:14.462Z,17.67
2018-04-13T23:55:40.714Z,33.15
2018-04-13T23:58:06.963Z,44.15
